createdAt,value
2023-02-11T00:00:57.075Z,8.15
2023-02-11T00:03:23.949Z,8.14
2023-02-11T00:06:01.859Z,8.14
2023-02-11T00:08:28.284Z,8.12
2023-02-11T00:10:56.802Z,8.15
2023-02-11T00:13:24.047Z,8.18
2023-02-11T00:15:51.133Z,8.17
2023-02-11T00:18:18.116Z,8.13
2023-02-11T00:20:44.724Z,8.13
2023-02-11T00:23:11.244Z,8.11
2023-02-11T00:25:45.567Z,8.17
2023-02-11T00:28:12.568Z,8.15
2023-02-11T00:30:39.270Z,8.14
2023-02-11T00:33:05.882Z,8.12
2023-02-11T00:35:32.341Z,8.10
2023-02-11T00:37:58.755Z,8.11
2023-02-11T00:40:25.315Z,8.11
2023-02-11T00:42:51.814Z,8.08
2023-02-11T00:45:20.797Z,8.11
2023-02-11T00:47:47.285Z,8.11
2023-02-11T00:50:13.789Z,8.11
2023-02-11T00:52:40.181Z,8.08
2023-02-11T00:55:08.168Z,8.05
2023-02-11T00:57:34.617Z,8.04
2023-02-11T01:00:01.069Z,8.02
2023-02-11T01:02:27.601Z,8.01
2023-02-11T01:04:54.087Z,7.99
2023-02-11T01:07:20.560Z,7.95
2023-02-11T01:09:49.768Z,7.96
2023-02-11T01:12:16.188Z,7.93
2023-02-11T01:14:43.032Z,7.93
2023-02-11T01:17:09.788Z,7.94
2023-02-11T01:19:39.388Z,7.94
2023-02-11T01:22:05.825Z,7.86
2023-02-11T01:24:32.363Z,7.88
2023-02-11T01:26:58.868Z,7.86
2023-02-11T01:29:25.259Z,7.83
2023-02-11T01:31:52.989Z,7.86
2023-02-11T01:34:19.435Z,7.84
2023-02-11T01:36:45.959Z,7.81
2023-02-11T01:39:12.474Z,7.80
2023-02-11T01:41:38.999Z,7.80
2023-02-11T01:44:27.337Z,7.82
2023-02-11T01:46:55.867Z,7.78
2023-02-11T01:49:29.378Z,7.82
2023-02-11T01:52:04.805Z,7.82
2023-02-11T01:54:56.952Z,7.83
2023-02-11T01:57:29.014Z,7.77
2023-02-11T02:00:12.897Z,7.84
2023-02-11T02:02:43.055Z,7.82
2023-02-11T02:05:33.399Z,7.83
2023-02-11T02:08:16.079Z,7.81
2023-02-11T02:10:45.819Z,7.77
2023-02-11T02:13:13.416Z,7.77
2023-02-11T02:15:46.510Z,7.75
2023-02-11T02:18:40.873Z,7.75
2023-02-11T02:21:31.194Z,7.73
2023-02-11T02:24:03.558Z,7.71
2023-02-11T02:26:52.022Z,7.70
2023-02-11T02:29:49.485Z,7.66
2023-02-11T02:32:31.174Z,7.62
2023-02-11T02:35:12.892Z,7.58
2023-02-11T02:38:06.660Z,7.56
2023-02-11T02:40:49.930Z,7.53
2023-02-11T02:43:17.198Z,7.49
2023-02-11T02:45:43.650Z,7.50
2023-02-11T02:48:35.658Z,7.53
2023-02-11T02:51:32.334Z,7.57
2023-02-11T02:54:30.726Z,7.56
2023-02-11T02:57:18.926Z,7.54
2023-02-11T03:00:19.517Z,7.53
2023-02-11T03:03:10.277Z,7.48
2023-02-11T03:05:49.743Z,7.44
2023-02-11T03:08:25.396Z,7.43
2023-02-11T03:10:54.177Z,7.43
2023-02-11T03:13:26.527Z,7.40
2023-02-11T03:15:57.800Z,7.40
2023-02-11T03:18:28.768Z,7.42
2023-02-11T03:20:56.859Z,7.41
2023-02-11T03:23:35.336Z,7.35
2023-02-11T03:26:15.198Z,7.29
2023-02-11T03:28:50.122Z,7.24
2023-02-11T03:31:44.007Z,7.20
2023-02-11T03:34:17.249Z,7.17
2023-02-11T03:36:57.519Z,7.20
2023-02-11T03:39:36.513Z,7.18
2023-02-11T03:42:06.733Z,7.14
2023-02-11T03:44:41.301Z,7.13
2023-02-11T03:47:10.852Z,7.09
2023-02-11T03:49:40.809Z,7.05
2023-02-11T03:52:11.265Z,7.06
2023-02-11T03:54:42.023Z,7.04
2023-02-11T03:57:08.630Z,7.04
2023-02-11T03:59:53.860Z,7.08
2023-02-11T04:02:22.211Z,7.11
2023-02-11T04:04:48.710Z,7.15
2023-02-11T04:07:15.134Z,7.17
2023-02-11T04:09:41.561Z,7.15
2023-02-11T04:12:08.438Z,7.14
2023-02-11T04:14:35.009Z,7.13
2023-02-11T04:17:01.489Z,7.11
2023-02-11T04:19:28.066Z,7.13
2023-02-11T04:21:54.509Z,7.16
2023-02-11T04:24:20.981Z,7.16
2023-02-11T04:26:47.397Z,7.16
2023-02-11T04:29:13.835Z,7.17
2023-02-11T04:31:40.300Z,7.20
2023-02-11T04:34:06.747Z,7.24
2023-02-11T04:36:33.218Z,7.28
2023-02-11T04:38:59.734Z,7.31
2023-02-11T04:41:28.161Z,7.31
2023-02-11T04:43:54.693Z,7.31
2023-02-11T04:46:21.241Z,7.33
2023-02-11T04:48:47.677Z,7.22
2023-02-11T04:51:14.162Z,7.35
2023-02-11T04:53:40.795Z,7.35
2023-02-11T04:56:07.256Z,7.36
2023-02-11T04:58:33.968Z,7.36
2023-02-11T05:01:11.878Z,7.35
2023-02-11T05:03:38.975Z,7.36
2023-02-11T05:06:06.164Z,7.35
2023-02-11T05:08:32.834Z,7.34
2023-02-11T05:10:59.290Z,7.33
2023-02-11T05:13:25.773Z,7.34
2023-02-11T05:15:53.284Z,7.35
2023-02-11T05:18:20.071Z,7.34
2023-02-11T05:20:46.566Z,7.32
2023-02-11T05:23:13.041Z,7.34
2023-02-11T05:25:39.448Z,7.34
2023-02-11T05:28:06.801Z,7.39
2023-02-11T05:30:36.350Z,7.37
2023-02-11T05:33:02.880Z,7.37
2023-02-11T05:35:30.358Z,7.38
2023-02-11T05:37:58.002Z,7.40
2023-02-11T05:40:24.583Z,7.44
2023-02-11T05:42:52.468Z,7.45
2023-02-11T05:45:18.938Z,7.47
2023-02-11T05:47:45.512Z,7.47
2023-02-11T05:50:12.041Z,7.48
2023-02-11T05:52:38.435Z,7.52
2023-02-11T05:55:05.751Z,7.53
2023-02-11T05:57:32.152Z,7.58
2023-02-11T05:59:58.632Z,7.60
2023-02-11T06:02:25.245Z,7.59
2023-02-11T06:04:51.762Z,7.58
2023-02-11T06:07:19.684Z,7.61
2023-02-11T06:09:46.438Z,7.61
2023-02-11T06:12:12.892Z,7.63
2023-02-11T06:14:39.301Z,7.63
2023-02-11T06:17:05.716Z,7.67
2023-02-11T06:19:32.225Z,7.67
2023-02-11T06:21:59.634Z,7.67
2023-02-11T06:24:54.713Z,7.67
2023-02-11T06:27:15.850Z,7.69
2023-02-11T06:29:44.155Z,7.70
2023-02-11T06:32:28.165Z,7.67
2023-02-11T06:34:57.109Z,7.68
2023-02-11T06:37:23.936Z,7.68
2023-02-11T06:39:52.853Z,7.68
2023-02-11T06:42:19.392Z,7.68
2023-02-11T06:44:45.843Z,7.65
2023-02-11T06:47:12.282Z,7.68
2023-02-11T06:49:38.694Z,7.66
2023-02-11T06:52:05.633Z,7.69
2023-02-11T06:54:32.069Z,7.69
2023-02-11T06:56:58.461Z,7.70
2023-02-11T06:59:24.851Z,7.71
2023-02-11T07:01:51.544Z,7.74
2023-02-11T07:04:27.497Z,7.73
2023-02-11T07:06:53.984Z,7.78
2023-02-11T07:09:20.577Z,7.80
2023-02-11T07:11:46.959Z,7.79
2023-02-11T07:14:13.743Z,7.80
2023-02-11T07:16:40.723Z,7.79
2023-02-11T07:19:07.345Z,7.82
2023-02-11T07:21:34.868Z,7.80
2023-02-11T07:24:01.685Z,7.82
2023-02-11T07:26:29.231Z,7.82
2023-02-11T07:28:56.247Z,7.81
2023-02-11T07:31:26.106Z,7.86
2023-02-11T07:33:56.701Z,7.87
2023-02-11T07:36:24.306Z,7.91
2023-02-11T07:38:50.820Z,7.96
2023-02-11T07:41:20.457Z,7.96
2023-02-11T07:43:47.356Z,8.00
2023-02-11T07:46:20.453Z,8.02
2023-02-11T07:48:47.396Z,8.04
2023-02-11T07:51:22.348Z,8.06
2023-02-11T07:53:49.001Z,8.08
2023-02-11T07:56:17.064Z,8.11
2023-02-11T07:58:43.845Z,8.03
2023-02-11T08:01:13.230Z,8.12
2023-02-11T08:03:41.297Z,8.14
2023-02-11T08:06:10.431Z,8.16
2023-02-11T08:08:37.392Z,8.20
2023-02-11T08:11:21.447Z,8.23
2023-02-11T08:13:48.584Z,8.25
2023-02-11T08:16:25.289Z,8.28
2023-02-11T08:18:53.440Z,8.31
2023-02-11T08:21:20.910Z,8.31
2023-02-11T08:23:47.574Z,8.31
2023-02-11T08:26:17.490Z,8.31
2023-02-11T08:28:45.610Z,8.30
2023-02-11T08:31:18.355Z,8.29
2023-02-11T08:33:52.398Z,8.32
2023-02-11T08:36:23.196Z,8.33
2023-02-11T08:38:49.776Z,8.36
2023-02-11T08:41:20.147Z,8.34
2023-02-11T08:43:47.158Z,8.37
2023-02-11T08:46:17.436Z,8.41
2023-02-11T08:48:44.741Z,8.43
2023-02-11T08:51:20.000Z,8.46
2023-02-11T08:53:46.743Z,8.49
2023-02-11T08:56:14.660Z,8.51
2023-02-11T08:58:41.863Z,8.51
2023-02-11T09:01:25.137Z,8.55
2023-02-11T09:03:51.964Z,8.54
2023-02-11T09:06:18.741Z,8.58
2023-02-11T09:08:51.903Z,8.61
2023-02-11T09:11:23.142Z,8.62
2023-02-11T09:13:51.473Z,8.66
2023-02-11T09:16:21.858Z,8.67
2023-02-11T09:18:49.403Z,8.67
2023-02-11T09:21:18.356Z,8.68
2023-02-11T09:23:47.623Z,8.69
2023-02-11T09:26:16.013Z,8.74
2023-02-11T09:28:42.579Z,8.73
2023-02-11T09:31:11.752Z,8.76
2023-02-11T09:33:42.159Z,8.80
2023-02-11T09:36:08.972Z,8.85
2023-02-11T09:38:35.438Z,8.87
2023-02-11T09:41:07.800Z,8.86
2023-02-11T09:43:44.116Z,8.91
2023-02-11T09:46:15.353Z,8.90
2023-02-11T09:48:45.342Z,8.96
2023-02-11T09:51:47.274Z,9.01
2023-02-11T09:54:27.297Z,9.03
2023-02-11T09:56:53.937Z,9.08
2023-02-11T09:59:21.115Z,9.15
2023-02-11T10:01:53.587Z,9.24
2023-02-11T10:04:55.717Z,9.35
2023-02-11T10:07:43.702Z,9.45
2023-02-11T10:10:17.215Z,9.50
2023-02-11T10:13:11.677Z,9.53
2023-02-11T10:15:56.906Z,9.56
2023-02-11T10:18:49.516Z,9.59
2023-02-11T10:21:36.051Z,9.54
2023-02-11T10:24:10.031Z,9.63
2023-02-11T10:26:38.943Z,9.61
2023-02-11T10:29:38.808Z,9.72
2023-02-11T10:32:26.732Z,9.73
2023-02-11T10:34:58.473Z,9.75
2023-02-11T10:37:24.983Z,9.80
2023-02-11T10:39:51.353Z,9.86
2023-02-11T10:42:18.322Z,9.91
2023-02-11T10:45:17.763Z,9.97
2023-02-11T10:47:44.286Z,10.06
2023-02-11T10:50:24.035Z,10.20
2023-02-11T10:52:50.521Z,10.32
2023-02-11T10:55:27.345Z,10.51
2023-02-11T10:58:00.801Z,10.72
2023-02-11T11:00:45.441Z,10.79
2023-02-11T11:03:37.721Z,10.78
2023-02-11T11:06:09.133Z,10.79
2023-02-11T11:08:44.444Z,10.91
2023-02-11T11:11:13.822Z,10.99
2023-02-11T11:13:52.640Z,11.03
2023-02-11T11:16:22.116Z,11.03
2023-02-11T11:18:50.834Z,11.05
2023-02-11T11:21:23.327Z,11.03
2023-02-11T11:23:58.748Z,10.97
2023-02-11T11:26:28.478Z,10.96
2023-02-11T11:28:57.492Z,11.03
2023-02-11T11:31:42.435Z,11.08
2023-02-11T11:34:29.877Z,11.15
2023-02-11T11:36:59.673Z,11.17
2023-02-11T11:39:32.470Z,11.17
2023-02-11T11:42:06.089Z,11.21
2023-02-11T11:44:40.819Z,11.27
2023-02-11T11:47:22.290Z,11.33
2023-02-11T11:50:03.684Z,11.39
2023-02-11T11:52:36.458Z,11.40
2023-02-11T11:55:12.901Z,11.32
2023-02-11T11:57:40.505Z,11.37
2023-02-11T12:00:17.771Z,11.40
2023-02-11T12:03:18.561Z,11.44
2023-02-11T12:06:10.734Z,11.42
2023-02-11T12:09:11.237Z,11.45
2023-02-11T12:12:20.744Z,11.56
2023-02-11T12:15:02.250Z,11.59
2023-02-11T12:18:00.964Z,11.66
2023-02-11T12:20:45.876Z,11.79
2023-02-11T12:23:27.793Z,11.86
2023-02-11T12:26:16.672Z,11.95
2023-02-11T12:29:10.360Z,12.10
2023-02-11T12:32:04.970Z,12.20
2023-02-11T12:35:09.332Z,12.34
2023-02-11T12:37:51.117Z,12.52
2023-02-11T12:40:35.299Z,12.59
2023-02-11T12:43:36.694Z,12.57
2023-02-11T12:46:37.779Z,12.58
2023-02-11T12:49:10.073Z,12.79
2023-02-11T12:52:03.763Z,12.62
2023-02-11T12:54:41.712Z,13.00
2023-02-11T12:57:22.991Z,13.22
2023-02-11T13:00:22.649Z,13.33
2023-02-11T13:03:11.012Z,13.44
2023-02-11T13:05:43.657Z,13.37
2023-02-11T13:08:27.767Z,13.33
2023-02-11T13:11:01.294Z,13.27
2023-02-11T13:13:50.669Z,13.28
2023-02-11T13:16:32.643Z,13.31
2023-02-11T13:19:14.211Z,13.12
2023-02-11T13:21:56.186Z,13.05
2023-02-11T13:24:27.266Z,13.02
2023-02-11T13:27:23.720Z,12.99
2023-02-11T13:30:21.956Z,12.98
2023-02-11T13:32:54.312Z,12.92
2023-02-11T13:35:38.579Z,12.87
2023-02-11T13:38:17.524Z,12.88
2023-02-11T13:40:44.389Z,12.92
2023-02-11T13:43:25.482Z,12.90
2023-02-11T13:45:57.473Z,12.85
2023-02-11T13:48:37.586Z,12.79
2023-02-11T13:51:10.018Z,12.76
2023-02-11T13:53:48.644Z,12.84
2023-02-11T13:56:30.049Z,12.88
2023-02-11T13:58:59.651Z,12.86
2023-02-11T14:02:12.850Z,12.81
2023-02-11T14:05:22.636Z,12.83
2023-02-11T14:08:33.623Z,12.88
2023-02-11T14:11:02.749Z,12.87
2023-02-11T14:13:33.658Z,12.89
2023-02-11T14:16:37.593Z,12.91
2023-02-11T14:19:06.338Z,12.91
2023-02-11T14:21:42.290Z,12.89
2023-02-11T14:24:12.964Z,12.77
2023-02-11T14:26:52.655Z,12.65
2023-02-11T14:29:34.778Z,12.61
2023-02-11T14:32:38.056Z,12.57
2023-02-11T14:35:22.662Z,12.57
2023-02-11T14:38:16.530Z,12.58
2023-02-11T14:41:03.450Z,12.59
2023-02-11T14:43:46.367Z,12.46
2023-02-11T14:46:15.546Z,12.47
2023-02-11T14:48:49.332Z,12.51
2023-02-11T14:51:25.758Z,12.52
2023-02-11T14:53:57.837Z,12.53
2023-02-11T14:56:26.957Z,12.52
2023-02-11T14:58:55.169Z,12.41
2023-02-11T15:01:40.216Z,12.36
2023-02-11T15:04:23.989Z,12.35
2023-02-11T15:06:50.929Z,12.36
2023-02-11T15:09:27.862Z,12.37
2023-02-11T15:11:55.883Z,12.35
2023-02-11T15:14:34.415Z,12.27
2023-02-11T15:17:08.042Z,12.20
2023-02-11T15:19:35.904Z,12.15
2023-02-11T15:22:05.901Z,12.05
2023-02-11T15:24:35.526Z,11.98
2023-02-11T15:27:14.556Z,11.85
2023-02-11T15:29:44.743Z,11.80
2023-02-11T15:32:17.407Z,11.74
2023-02-11T15:34:45.693Z,11.70
2023-02-11T15:37:19.547Z,11.66
2023-02-11T15:39:46.174Z,11.60
2023-02-11T15:42:28.576Z,11.58
2023-02-11T15:45:16.996Z,11.60
2023-02-11T15:47:52.659Z,11.64
2023-02-11T15:50:35.177Z,11.65
2023-02-11T15:53:25.246Z,11.61
2023-02-11T15:55:54.093Z,11.62
2023-02-11T15:58:22.663Z,11.58
2023-02-11T16:00:56.607Z,11.54
2023-02-11T16:03:28.000Z,11.53
2023-02-11T16:05:56.481Z,11.52
2023-02-11T16:08:29.772Z,11.46
2023-02-11T16:11:08.743Z,11.52
2023-02-11T16:13:47.548Z,11.43
2023-02-11T16:16:24.854Z,11.37
2023-02-11T16:19:04.971Z,11.32
2023-02-11T16:21:39.279Z,11.33
2023-02-11T16:24:07.957Z,11.25
2023-02-11T16:26:43.124Z,11.19
2023-02-11T16:29:29.818Z,11.21
2023-02-11T16:32:09.099Z,11.19
2023-02-11T16:34:36.506Z,11.17
2023-02-11T16:37:05.354Z,11.15
2023-02-11T16:39:32.097Z,11.14
2023-02-11T16:41:59.518Z,11.14
2023-02-11T16:44:26.306Z,11.14
2023-02-11T16:46:53.934Z,11.12
2023-02-11T16:49:23.954Z,11.11
2023-02-11T16:51:53.064Z,11.06
2023-02-11T16:54:20.207Z,10.98
2023-02-11T16:56:46.786Z,10.94
2023-02-11T16:59:13.429Z,10.90
2023-02-11T17:01:41.186Z,10.85
2023-02-11T17:04:14.720Z,10.79
2023-02-11T17:06:41.142Z,10.73
2023-02-11T17:09:08.494Z,10.73
2023-02-11T17:11:34.924Z,10.72
2023-02-11T17:14:01.365Z,10.68
2023-02-11T17:16:29.750Z,10.72
2023-02-11T17:18:56.233Z,10.71
2023-02-11T17:21:27.122Z,10.72
2023-02-11T17:23:55.179Z,10.71
2023-02-11T17:26:21.693Z,10.71
2023-02-11T17:28:48.249Z,10.73
2023-02-11T17:31:15.191Z,10.71
2023-02-11T17:33:41.750Z,10.71
2023-02-11T17:36:10.349Z,10.69
2023-02-11T17:38:38.209Z,10.67
2023-02-11T17:41:07.919Z,10.68
2023-02-11T17:43:34.438Z,10.67
2023-02-11T17:46:05.494Z,10.64
2023-02-11T17:48:33.872Z,10.67
2023-02-11T17:51:00.469Z,10.68
2023-02-11T17:53:26.880Z,10.70
2023-02-11T17:55:55.983Z,10.71
2023-02-11T17:58:22.886Z,10.70
2023-02-11T18:00:49.810Z,10.69
2023-02-11T18:03:16.241Z,10.67
2023-02-11T18:05:42.692Z,10.63
2023-02-11T18:08:09.340Z,10.59
2023-02-11T18:10:35.821Z,10.45
2023-02-11T18:13:02.457Z,10.53
2023-02-11T18:15:29.018Z,10.51
2023-02-11T18:17:55.947Z,10.46
2023-02-11T18:20:22.423Z,10.42
2023-02-11T18:22:48.915Z,10.42
2023-02-11T18:25:15.999Z,10.41
2023-02-11T18:27:43.491Z,10.40
2023-02-11T18:30:20.200Z,10.40
2023-02-11T18:32:46.806Z,10.36
2023-02-11T18:35:15.141Z,10.29
2023-02-11T18:37:42.660Z,10.33
2023-02-11T18:40:10.591Z,10.32
2023-02-11T18:42:37.155Z,10.33
2023-02-11T18:45:09.669Z,10.31
2023-02-11T18:47:37.768Z,10.31
2023-02-11T18:50:10.112Z,10.33
2023-02-11T18:52:38.353Z,10.32
2023-02-11T18:55:09.057Z,10.36
2023-02-11T18:57:35.498Z,10.36
2023-02-11T19:00:01.901Z,10.37
2023-02-11T19:02:29.337Z,10.40
2023-02-11T19:04:55.840Z,10.38
2023-02-11T19:07:22.295Z,10.37
2023-02-11T19:09:49.030Z,10.34
2023-02-11T19:12:15.576Z,10.32
2023-02-11T19:14:42.009Z,10.29
2023-02-11T19:17:11.841Z,10.28
2023-02-11T19:19:38.456Z,10.28
2023-02-11T19:22:10.554Z,10.28
2023-02-11T19:24:38.527Z,10.27
2023-02-11T19:27:05.210Z,10.27
2023-02-11T19:29:35.122Z,10.26
2023-02-11T19:32:04.235Z,10.26
2023-02-11T19:34:30.774Z,10.26
2023-02-11T19:36:59.576Z,10.28
2023-02-11T19:39:29.322Z,10.26
2023-02-11T19:41:55.791Z,10.22
2023-02-11T19:44:22.232Z,10.22
2023-02-11T19:46:50.219Z,10.21
2023-02-11T19:49:23.194Z,10.20
2023-02-11T19:51:53.978Z,10.21
2023-02-11T19:54:20.777Z,10.20
2023-02-11T19:56:47.878Z,10.22
2023-02-11T19:59:15.523Z,10.26
2023-02-11T20:01:42.322Z,10.25
2023-02-11T20:04:09.073Z,10.22
2023-02-11T20:06:35.627Z,10.23
2023-02-11T20:09:06.492Z,10.24
2023-02-11T20:11:35.828Z,10.24
2023-02-11T20:14:02.700Z,10.21
2023-02-11T20:16:47.079Z,10.21
2023-02-11T20:19:17.795Z,10.16
2023-02-11T20:21:47.110Z,10.12
2023-02-11T20:24:14.285Z,10.12
2023-02-11T20:26:42.399Z,10.15
2023-02-11T20:29:08.940Z,10.17
2023-02-11T20:31:35.687Z,10.17
2023-02-11T20:34:02.468Z,10.16
2023-02-11T20:36:32.350Z,10.14
2023-02-11T20:39:00.496Z,10.15
2023-02-11T20:41:34.192Z,10.13
2023-02-11T20:44:04.065Z,10.08
2023-02-11T20:46:33.178Z,10.09
2023-02-11T20:49:00.913Z,10.11
2023-02-11T20:51:30.350Z,10.12
2023-02-11T20:53:57.581Z,10.16
2023-02-11T20:56:26.964Z,10.19
2023-02-11T20:58:53.466Z,10.22
2023-02-11T21:01:25.701Z,10.24
2023-02-11T21:03:53.666Z,10.23
2023-02-11T21:06:21.726Z,10.19
2023-02-11T21:08:48.291Z,10.19
2023-02-11T21:11:15.219Z,10.19
2023-02-11T21:13:42.746Z,10.20
2023-02-11T21:16:13.499Z,10.16
2023-02-11T21:18:40.334Z,10.13
2023-02-11T21:21:07.147Z,10.08
2023-02-11T21:23:33.660Z,10.04
2023-02-11T21:26:00.114Z,9.99
2023-02-11T21:28:26.744Z,9.99
2023-02-11T21:30:55.185Z,9.94
2023-02-11T21:33:23.442Z,9.95
2023-02-11T21:35:50.203Z,9.96
2023-02-11T21:38:16.793Z,9.94
2023-02-11T21:40:43.324Z,9.95
2023-02-11T21:43:09.799Z,9.89
2023-02-11T21:45:42.733Z,9.93
2023-02-11T21:48:09.425Z,9.89
2023-02-11T21:50:43.226Z,9.92
2023-02-11T21:53:09.833Z,9.90
2023-02-11T21:55:37.436Z,9.89
2023-02-11T21:58:04.863Z,9.91
2023-02-11T22:00:32.102Z,9.85
2023-02-11T22:02:58.530Z,9.83
2023-02-11T22:05:25.293Z,9.81
2023-02-11T22:07:52.130Z,9.83
2023-02-11T22:10:19.651Z,9.84
2023-02-11T22:12:46.548Z,9.77
2023-02-11T22:15:13.268Z,9.83
2023-02-11T22:17:39.846Z,9.83
2023-02-11T22:20:08.814Z,9.80
2023-02-11T22:22:35.527Z,9.80
2023-02-11T22:25:03.289Z,9.79
2023-02-11T22:27:29.798Z,9.78
2023-02-11T22:29:56.287Z,9.82
2023-02-11T22:32:22.881Z,9.84
2023-02-11T22:34:51.498Z,9.84
2023-02-11T22:37:22.500Z,9.85
2023-02-11T22:39:49.110Z,9.84
2023-02-11T22:42:15.519Z,9.84
2023-02-11T22:44:42.192Z,9.84
2023-02-11T22:47:08.681Z,9.83
2023-02-11T22:49:35.998Z,9.83
2023-02-11T22:52:03.468Z,9.82
2023-02-11T22:54:30.029Z,9.82
2023-02-11T22:56:56.407Z,9.82
2023-02-11T22:59:22.848Z,9.83
2023-02-11T23:01:49.386Z,9.86
2023-02-11T23:04:17.020Z,9.86
2023-02-11T23:06:43.578Z,9.85
2023-02-11T23:09:12.451Z,9.85
2023-02-11T23:11:40.545Z,9.86
2023-02-11T23:14:08.690Z,9.84
2023-02-11T23:16:35.491Z,9.85
2023-02-11T23:19:07.919Z,9.85
2023-02-11T23:21:37.101Z,9.83
2023-02-11T23:24:14.706Z,9.82
2023-02-11T23:26:43.226Z,9.80
2023-02-11T23:29:10.898Z,9.81
2023-02-11T23:31:41.366Z,9.81
2023-02-11T23:34:08.829Z,9.81
2023-02-11T23:36:36.092Z,9.83
2023-02-11T23:39:03.047Z,9.85
2023-02-11T23:41:29.805Z,9.90
2023-02-11T23:43:57.883Z,9.91
2023-02-11T23:46:26.608Z,9.93
2023-02-11T23:48:53.390Z,9.89
2023-02-11T23:51:20.405Z,9.86
2023-02-11T23:53:49.179Z,9.84
2023-02-11T23:56:18.741Z,9.85
2023-02-11T23:58:48.198Z,9.87
